createdAt,value
2022-08-12T00:00:35.892Z,2.40
2022-08-12T00:03:21.801Z,2.25
2022-08-12T00:06:09.081Z,2.17
2022-08-12T00:08:57.453Z,2.50
2022-08-12T00:11:44.827Z,2.50
2022-08-12T00:14:30.482Z,2.42
2022-08-12T00:17:16.835Z,2.50
2022-08-12T00:20:02.043Z,2.60
2022-08-12T00:22:59.442Z,2.35
2022-08-12T00:26:23.239Z,2.40
2022-08-12T00:29:11.133Z,2.33
2022-08-12T00:31:56.452Z,2.30
2022-08-12T00:34:41.686Z,2.50
2022-08-12T00:37:27.712Z,2.40
2022-08-12T00:40:14.654Z,2.38
2022-08-12T00:42:42.578Z,2.50
2022-08-12T00:45:10.425Z,2.58
2022-08-12T00:47:38.378Z,2.80
2022-08-12T00:50:06.861Z,2.90
2022-08-12T00:52:35.447Z,2.30
2022-08-12T00:55:03.900Z,2.30
2022-08-12T00:57:37.613Z,2.50
2022-08-12T01:00:08.574Z,2.77
2022-08-12T01:02:46.355Z,2.50
2022-08-12T01:05:35.243Z,2.70
2022-08-12T01:08:21.145Z,2.58
2022-08-12T01:11:07.993Z,2.75
2022-08-12T01:13:37.178Z,2.40
2022-08-12T01:16:07.574Z,2.83
2022-08-12T01:18:37.200Z,3.00
2022-08-12T01:21:12.869Z,2.78
2022-08-12T01:23:48.687Z,2.33
2022-08-12T01:26:21.361Z,3.10
2022-08-12T01:28:51.107Z,2.85
2022-08-12T01:31:20.272Z,2.58
2022-08-12T01:34:03.493Z,2.92
2022-08-12T01:36:36.701Z,3.00
2022-08-12T01:39:04.994Z,2.63
2022-08-12T01:41:36.566Z,2.60
2022-08-12T01:44:03.785Z,2.90
2022-08-12T01:47:03.868Z,2.83
2022-08-12T01:49:30.559Z,2.90
2022-08-12T01:52:19.918Z,2.60
2022-08-12T01:54:50.388Z,2.50
2022-08-12T01:57:59.575Z,2.60
2022-08-12T02:00:16.709Z,3.22
2022-08-12T02:02:53.275Z,3.03
2022-08-12T02:05:41.642Z,3.00
2022-08-12T02:08:33.039Z,2.88
2022-08-12T02:11:16.511Z,3.10
2022-08-12T02:14:01.478Z,2.75
2022-08-12T02:16:31.231Z,3.10
2022-08-12T02:19:22.205Z,2.73
2022-08-12T02:22:24.618Z,2.80
2022-08-12T02:24:56.444Z,2.40
2022-08-12T02:27:27.704Z,2.33
2022-08-12T02:29:54.613Z,2.45
2022-08-12T02:32:21.570Z,2.10
2022-08-12T02:34:48.826Z,2.35
2022-08-12T02:37:15.705Z,2.80
2022-08-12T02:39:48.919Z,2.63
2022-08-12T02:42:18.988Z,2.60
2022-08-12T02:44:51.160Z,3.10
2022-08-12T02:47:59.621Z,3.53
2022-08-12T02:50:09.907Z,3.35
2022-08-12T02:52:37.680Z,3.35
2022-08-12T02:55:28.713Z,3.60
2022-08-12T02:58:08.884Z,3.10
2022-08-12T03:00:40.501Z,3.38
2022-08-12T03:03:10.142Z,3.08
2022-08-12T03:05:46.876Z,3.20
2022-08-12T03:08:30.538Z,2.95
2022-08-12T03:11:14.555Z,3.40
2022-08-12T03:13:46.865Z,2.90
2022-08-12T03:16:14.858Z,3.42
2022-08-12T03:18:46.013Z,3.30
2022-08-12T03:21:16.879Z,3.15
2022-08-12T03:23:45.384Z,3.70
2022-08-12T03:26:13.348Z,3.17
2022-08-12T03:28:50.619Z,3.65
2022-08-12T03:31:24.987Z,3.30
2022-08-12T03:34:00.651Z,3.05
2022-08-12T03:36:31.330Z,3.23
2022-08-12T03:39:35.463Z,3.65
2022-08-12T03:42:24.353Z,4.40
2022-08-12T03:45:31.186Z,4.35
2022-08-12T03:48:23.683Z,4.50
2022-08-12T03:51:09.516Z,4.70
2022-08-12T03:53:56.279Z,3.95
2022-08-12T03:56:42.087Z,3.80
2022-08-12T03:59:27.955Z,3.92
2022-08-12T04:01:58.682Z,3.80
2022-08-12T04:04:35.192Z,4.10
2022-08-12T04:07:08.678Z,4.30
2022-08-12T04:09:38.868Z,5.18
2022-08-12T04:12:33.235Z,4.43
2022-08-12T04:15:01.486Z,4.07
2022-08-12T04:17:28.710Z,4.23
2022-08-12T04:19:57.997Z,5.10
2022-08-12T04:22:29.466Z,4.43
2022-08-12T04:25:01.062Z,3.90
2022-08-12T04:27:31.695Z,4.00
2022-08-12T04:30:29.033Z,4.30
2022-08-12T04:32:48.805Z,4.10
2022-08-12T04:35:16.942Z,4.28
2022-08-12T04:37:59.314Z,4.57
2022-08-12T04:40:31.487Z,4.03
2022-08-12T04:43:01.538Z,4.77
2022-08-12T04:45:30.187Z,4.70
2022-08-12T04:47:57.114Z,4.15
2022-08-12T04:50:27.189Z,4.35
2022-08-12T04:53:05.489Z,4.13
2022-08-12T04:55:34.860Z,4.80
2022-08-12T04:58:01.930Z,4.55
2022-08-12T05:00:29.097Z,4.57
2022-08-12T05:02:56.285Z,5.00
2022-08-12T05:05:24.091Z,4.47
2022-08-12T05:07:54.910Z,4.80
2022-08-12T05:10:33.916Z,5.18
2022-08-12T05:13:07.440Z,4.85
2022-08-12T05:15:37.809Z,4.88
2022-08-12T05:18:24.723Z,4.53
2022-08-12T05:20:52.046Z,3.70
2022-08-12T05:23:20.591Z,3.85
2022-08-12T05:25:51.409Z,3.75
2022-08-12T05:28:18.506Z,3.80
2022-08-12T05:30:46.371Z,3.53
2022-08-12T05:33:15.633Z,3.37
2022-08-12T05:35:45.478Z,3.50
2022-08-12T05:38:34.230Z,4.13
2022-08-12T05:41:03.102Z,3.60
2022-08-12T05:43:29.998Z,3.90
2022-08-12T05:45:56.861Z,6.77
2022-08-12T05:48:24.452Z,4.97
2022-08-12T05:50:53.063Z,5.00
2022-08-12T05:53:19.933Z,4.30
2022-08-12T05:55:46.734Z,4.03
2022-08-12T05:58:13.546Z,3.87
2022-08-12T06:00:42.574Z,4.20
2022-08-12T06:03:09.547Z,4.00
2022-08-12T06:05:52.640Z,4.30
2022-08-12T06:08:24.277Z,4.05
2022-08-12T06:10:51.426Z,3.73
2022-08-12T06:13:28.642Z,3.53
2022-08-12T06:16:10.003Z,3.45
2022-08-12T06:18:40.753Z,3.30
2022-08-12T06:21:11.920Z,3.22
2022-08-12T06:23:42.690Z,2.90
2022-08-12T06:26:11.739Z,3.20
2022-08-12T06:28:39.855Z,3.20
2022-08-12T06:34:52.933Z,2.88
2022-08-12T06:36:42.944Z,2.00
2022-08-12T06:39:14.956Z,1.65
2022-08-12T06:42:05.154Z,1.77
2022-08-12T06:44:50.474Z,1.70
2022-08-12T06:47:19.540Z,1.50
2022-08-12T06:49:46.695Z,1.60
2022-08-12T06:52:13.487Z,1.58
2022-08-12T06:54:45.905Z,2.55
2022-08-12T06:58:06.299Z,1.95
2022-08-12T07:00:00.517Z,2.10
2022-08-12T07:02:27.450Z,1.57
2022-08-12T07:04:54.264Z,1.50
2022-08-12T07:07:21.363Z,1.98
2022-08-12T07:10:04.088Z,1.98
2022-08-12T07:12:37.642Z,2.17
2022-08-12T07:15:07.364Z,1.60
2022-08-12T07:17:38.146Z,2.00
2022-08-12T07:20:29.890Z,1.92
2022-08-12T07:22:57.652Z,2.10
2022-08-12T07:25:31.131Z,2.42
2022-08-12T07:28:17.091Z,1.83
2022-08-12T07:30:46.260Z,1.90
2022-08-12T07:33:13.641Z,1.98
2022-08-12T07:35:48.687Z,1.73
2022-08-12T07:38:30.526Z,2.00
2022-08-12T07:41:15.489Z,2.10
2022-08-12T07:43:46.200Z,1.80
2022-08-12T07:46:16.926Z,1.70
2022-08-12T07:48:49.981Z,1.90
2022-08-12T07:51:24.769Z,2.20
2022-08-12T07:54:00.950Z,2.00
2022-08-12T07:56:31.347Z,1.55
2022-08-12T07:58:59.254Z,1.90
2022-08-12T08:01:27.177Z,1.90
2022-08-12T08:04:18.404Z,2.20
2022-08-12T08:06:47.429Z,2.30
2022-08-12T08:09:16.143Z,2.30
2022-08-12T08:12:01.695Z,2.03
2022-08-12T08:14:29.183Z,2.33
2022-08-12T08:16:57.867Z,2.28
2022-08-12T08:19:27.866Z,1.80
2022-08-12T08:21:56.242Z,2.10
2022-08-12T08:24:26.941Z,2.00
2022-08-12T08:26:56.735Z,2.15
2022-08-12T08:29:24.328Z,2.22
2022-08-12T08:31:54.829Z,1.80
2022-08-12T08:34:33.753Z,2.10
2022-08-12T08:37:10.794Z,1.92
2022-08-12T08:39:42.561Z,1.83
2022-08-12T08:42:28.324Z,1.70
2022-08-12T08:44:58.084Z,2.00
2022-08-12T08:47:26.001Z,2.13
2022-08-12T08:49:52.929Z,1.85
2022-08-12T08:52:39.202Z,1.80
2022-08-12T08:55:20.853Z,1.50
2022-08-12T08:57:54.752Z,1.50
2022-08-12T09:00:23.369Z,1.55
2022-08-12T09:02:59.518Z,1.63
2022-08-12T09:05:28.315Z,1.67
2022-08-12T09:08:22.389Z,1.70
2022-08-12T09:12:06.767Z,1.40
2022-08-12T09:14:11.039Z,1.48
2022-08-12T09:16:41.566Z,1.83
2022-08-12T09:19:26.878Z,1.73
2022-08-12T09:21:55.490Z,2.22
2022-08-12T09:24:22.707Z,1.83
2022-08-12T09:26:54.882Z,1.95
2022-08-12T09:30:10.470Z,1.73
2022-08-12T09:32:31.403Z,1.95
2022-08-12T09:34:56.626Z,1.65
2022-08-12T09:37:26.724Z,2.00
2022-08-12T09:40:01.743Z,2.03
2022-08-12T09:43:16.018Z,1.90
2022-08-12T09:46:11.551Z,1.90
2022-08-12T09:48:35.196Z,1.65
2022-08-12T09:51:16.752Z,2.40
2022-08-12T09:54:05.461Z,1.77
2022-08-12T09:56:59.110Z,2.03
2022-08-12T10:00:15.920Z,1.67
2022-08-12T10:02:43.945Z,2.00
2022-08-12T10:04:59.650Z,2.00
2022-08-12T10:07:31.038Z,1.50
2022-08-12T10:10:22.397Z,1.83
2022-08-12T10:13:12.652Z,1.75
2022-08-12T10:16:02.749Z,1.60
2022-08-12T10:18:32.842Z,1.83
2022-08-12T10:21:07.874Z,1.30
2022-08-12T10:23:39.916Z,1.55
2022-08-12T10:26:37.086Z,1.92
2022-08-12T10:30:39.036Z,2.13
2022-08-12T10:32:44.132Z,2.10
2022-08-12T10:35:10.709Z,2.05
2022-08-12T10:38:34.940Z,2.00
2022-08-12T10:40:31.471Z,1.60
2022-08-12T10:43:18.665Z,2.00
2022-08-12T10:45:49.280Z,1.60
2022-08-12T10:48:21.923Z,1.80
2022-08-12T10:51:01.586Z,2.05
2022-08-12T10:53:43.984Z,1.92
2022-08-12T10:56:15.371Z,2.00
2022-08-12T10:58:46.241Z,2.07
2022-08-12T11:01:50.567Z,1.90
2022-08-12T11:04:23.742Z,2.00
2022-08-12T11:07:07.902Z,1.90
2022-08-12T11:09:59.803Z,2.30
2022-08-12T11:12:55.830Z,1.90
2022-08-12T11:15:24.351Z,2.03
2022-08-12T11:18:07.713Z,1.70
2022-08-12T11:20:39.622Z,2.05
2022-08-12T11:23:25.777Z,1.60
2022-08-12T11:25:58.142Z,1.70
2022-08-12T11:28:34.818Z,1.60
2022-08-12T11:31:06.364Z,2.40
2022-08-12T11:34:06.236Z,1.80
2022-08-12T11:36:22.216Z,2.10
2022-08-12T11:38:50.905Z,1.87
2022-08-12T11:41:28.013Z,2.00
2022-08-12T11:43:58.880Z,2.42
2022-08-12T11:46:26.241Z,1.83
2022-08-12T11:48:53.028Z,2.00
2022-08-12T11:51:21.048Z,1.87
2022-08-12T11:53:58.317Z,1.65
2022-08-12T11:56:38.525Z,1.77
2022-08-12T12:01:58.356Z,1.65
2022-08-12T12:04:29.468Z,2.10
2022-08-12T12:07:07.141Z,2.42
2022-08-12T12:09:52.586Z,2.00
2022-08-12T12:12:19.994Z,2.10
2022-08-12T12:14:54.907Z,2.00
2022-08-12T12:17:26.767Z,2.37
2022-08-12T12:20:12.629Z,2.10
2022-08-12T12:22:41.674Z,2.70
2022-08-12T12:25:13.682Z,2.28
2022-08-12T12:28:06.266Z,2.35
2022-08-12T12:30:37.292Z,2.50
2022-08-12T12:33:05.938Z,2.15
2022-08-12T12:36:16.542Z,2.92
2022-08-12T12:38:20.786Z,2.83
2022-08-12T12:40:52.374Z,2.50
2022-08-12T12:43:37.025Z,2.93
2022-08-12T12:46:06.686Z,2.20
2022-08-12T12:48:35.719Z,2.40
2022-08-12T12:51:48.373Z,2.90
2022-08-12T12:54:08.283Z,2.95
2022-08-12T12:56:42.251Z,2.17
2022-08-12T12:59:56.723Z,2.20
2022-08-12T13:02:02.089Z,2.42
2022-08-12T13:04:35.190Z,1.95
2022-08-12T13:07:05.707Z,2.00
2022-08-12T13:09:36.212Z,2.10
2022-08-12T13:12:10.420Z,1.80
2022-08-12T13:14:40.032Z,2.20
2022-08-12T13:17:09.691Z,2.15
2022-08-12T13:19:44.507Z,1.83
2022-08-12T13:22:20.355Z,2.17
2022-08-12T13:24:54.932Z,2.03
2022-08-12T13:27:36.395Z,2.40
2022-08-12T13:30:11.291Z,1.67
2022-08-12T13:32:57.722Z,2.22
2022-08-12T13:35:33.417Z,2.00
2022-08-12T13:38:13.435Z,2.00
2022-08-12T13:40:40.613Z,2.22
2022-08-12T13:43:07.762Z,1.95
2022-08-12T13:45:40.572Z,2.40
2022-08-12T13:48:08.391Z,1.90
2022-08-12T13:50:41.087Z,2.50
2022-08-12T13:53:24.264Z,2.13
2022-08-12T13:55:59.823Z,1.95
2022-08-12T13:58:34.610Z,1.92
2022-08-12T14:01:05.913Z,1.60
2022-08-12T14:03:50.432Z,2.03
2022-08-12T14:06:19.077Z,1.73
2022-08-12T14:08:49.731Z,2.05
2022-08-12T14:11:18.983Z,2.05
2022-08-12T14:14:05.700Z,1.90
2022-08-12T14:16:46.720Z,2.05
2022-08-12T14:19:22.525Z,2.20
2022-08-12T14:22:01.005Z,2.15
2022-08-12T14:24:40.277Z,2.20
2022-08-12T14:27:10.740Z,2.37
2022-08-12T14:30:04.292Z,1.80
2022-08-12T14:32:35.293Z,1.95
2022-08-12T14:35:05.265Z,2.00
2022-08-12T14:37:56.106Z,2.10
2022-08-12T14:40:27.406Z,1.80
2022-08-12T14:42:56.949Z,2.20
2022-08-12T14:45:37.235Z,2.08
2022-08-12T14:48:13.013Z,2.15
2022-08-12T14:51:03.182Z,2.08
2022-08-12T14:57:05.629Z,1.40
2022-08-12T14:59:26.677Z,2.22
2022-08-12T15:02:14.707Z,1.90
2022-08-12T15:04:42.060Z,2.70
2022-08-12T15:07:34.272Z,2.30
2022-08-12T15:10:01.733Z,2.42
2022-08-12T15:12:31.967Z,2.20
2022-08-12T15:15:00.074Z,2.72
2022-08-12T15:17:37.513Z,2.95
2022-08-12T15:20:31.701Z,2.70
2022-08-12T15:22:53.821Z,2.72
2022-08-12T15:25:21.495Z,2.42
2022-08-12T15:28:04.437Z,2.20
2022-08-12T15:30:34.781Z,2.50
2022-08-12T15:33:12.954Z,2.20
2022-08-12T15:35:53.186Z,2.53
2022-08-12T15:38:24.748Z,2.60
2022-08-12T15:40:55.200Z,2.20
2022-08-12T15:43:51.020Z,2.10
2022-08-12T15:46:15.745Z,2.47
2022-08-12T15:48:47.322Z,2.13
2022-08-12T15:51:58.748Z,2.15
2022-08-12T15:54:34.015Z,2.05
2022-08-12T15:57:08.110Z,2.05
2022-08-12T15:59:51.366Z,2.10
2022-08-12T16:02:27.129Z,1.80
2022-08-12T16:04:56.243Z,2.25
2022-08-12T16:07:25.894Z,1.77
2022-08-12T16:10:06.807Z,2.20
2022-08-12T16:12:54.503Z,1.90
2022-08-12T16:15:29.538Z,1.85
2022-08-12T16:18:19.374Z,1.60
2022-08-12T16:20:52.599Z,1.65
2022-08-12T16:23:35.835Z,1.90
2022-08-12T16:26:14.149Z,2.10
2022-08-12T16:28:47.078Z,1.80
2022-08-12T16:31:23.132Z,2.00
2022-08-12T16:33:58.884Z,1.95
2022-08-12T16:36:32.053Z,2.15
2022-08-12T16:39:04.620Z,2.10
2022-08-12T16:41:40.001Z,1.85
2022-08-12T16:44:10.557Z,2.08
2022-08-12T16:46:38.023Z,2.15
2022-08-12T16:49:13.459Z,2.10
2022-08-12T16:51:46.922Z,2.20
2022-08-12T16:54:26.608Z,2.10
2022-08-12T16:57:05.607Z,1.92
2022-08-12T16:59:54.194Z,2.08
2022-08-12T17:02:33.880Z,2.33
2022-08-12T17:05:05.077Z,2.30
2022-08-12T17:07:38.906Z,2.70
2022-08-12T17:10:18.366Z,2.50
2022-08-12T17:13:09.773Z,2.40
2022-08-12T17:15:57.817Z,2.08
2022-08-12T17:18:44.157Z,1.90
2022-08-12T17:21:17.470Z,1.90
2022-08-12T17:23:53.670Z,2.28
2022-08-12T17:26:28.129Z,2.10
2022-08-12T17:28:56.541Z,2.40
2022-08-12T17:32:01.165Z,2.60
2022-08-12T17:34:30.452Z,2.58
2022-08-12T17:37:04.822Z,2.53
2022-08-12T17:40:12.003Z,2.47
2022-08-12T17:42:35.027Z,2.55
2022-08-12T17:45:18.562Z,2.97
2022-08-12T17:48:01.467Z,2.90
2022-08-12T17:50:36.950Z,3.10
2022-08-12T17:53:08.014Z,2.50
2022-08-12T17:55:44.608Z,2.80
2022-08-12T17:58:16.540Z,2.87
2022-08-12T18:00:45.509Z,2.70
2022-08-12T18:03:58.233Z,2.67
2022-08-12T18:06:08.718Z,2.63
2022-08-12T18:08:54.181Z,2.78
2022-08-12T18:12:03.996Z,2.70
2022-08-12T18:14:31.674Z,2.92
2022-08-12T18:17:00.724Z,2.80
2022-08-12T18:19:34.109Z,2.60
2022-08-12T18:22:22.305Z,2.80
2022-08-12T18:25:06.355Z,2.87
2022-08-12T18:27:44.762Z,2.67
2022-08-12T18:30:20.373Z,2.88
2022-08-12T18:33:03.859Z,2.22
2022-08-12T18:35:47.538Z,2.55
2022-08-12T18:38:25.546Z,2.63
2022-08-12T18:41:21.810Z,2.80
2022-08-12T18:44:09.481Z,2.55
2022-08-12T18:46:54.130Z,2.70
2022-08-12T18:49:39.461Z,2.70
2022-08-12T18:52:11.345Z,2.20
2022-08-12T18:54:52.252Z,2.22
2022-08-12T18:58:07.543Z,2.10
2022-08-12T19:00:22.148Z,1.95
2022-08-12T19:02:53.392Z,2.20
2022-08-12T19:05:20.583Z,2.47
2022-08-12T19:08:01.159Z,2.58
2022-08-12T19:10:31.395Z,2.22
2022-08-12T19:13:23.941Z,1.90
2022-08-12T19:15:53.540Z,2.40
2022-08-12T19:18:22.325Z,3.17
2022-08-12T19:20:50.654Z,3.23
2022-08-12T19:23:21.302Z,3.20
2022-08-12T19:26:01.477Z,3.50
2022-08-12T19:28:35.596Z,4.05
2022-08-12T19:31:44.835Z,3.72
2022-08-12T19:38:02.719Z,3.00
2022-08-12T19:40:27.343Z,3.30
2022-08-12T19:43:01.804Z,3.58
2022-08-12T19:45:43.442Z,3.72
2022-08-12T19:48:21.147Z,3.60
2022-08-12T19:50:52.327Z,3.50
2022-08-12T19:53:22.843Z,3.25
2022-08-12T19:55:52.641Z,3.35
2022-08-12T19:58:20.778Z,3.83
2022-08-12T20:00:53.287Z,3.37
2022-08-12T20:03:38.462Z,4.25
2022-08-12T20:06:13.917Z,3.90
2022-08-12T20:08:48.752Z,3.85
2022-08-12T20:12:13.579Z,3.53
2022-08-12T20:14:09.884Z,3.40
2022-08-12T20:19:52.558Z,3.92
2022-08-12T20:22:24.934Z,4.68
2022-08-12T20:25:01.222Z,4.07
2022-08-12T20:28:05.585Z,3.50
2022-08-12T20:30:37.923Z,3.30
2022-08-12T20:33:16.771Z,3.47
2022-08-12T20:36:06.530Z,3.42
2022-08-12T20:38:35.586Z,3.42
2022-08-12T20:41:16.600Z,3.20
2022-08-12T20:43:45.975Z,3.28
2022-08-12T20:46:13.524Z,3.20
2022-08-12T20:48:44.451Z,3.00
2022-08-12T20:51:15.940Z,2.63
2022-08-12T20:53:53.993Z,3.10
2022-08-12T20:56:36.997Z,3.30
2022-08-12T20:59:19.744Z,3.28
2022-08-12T21:01:48.638Z,2.72
2022-08-12T21:04:36.877Z,3.28
2022-08-12T21:07:09.486Z,3.20
2022-08-12T21:09:44.260Z,2.65
2022-08-12T21:12:30.878Z,2.65
2022-08-12T21:15:23.286Z,2.28
2022-08-12T21:18:11.987Z,2.90
2022-08-12T21:20:53.216Z,2.20
2022-08-12T21:23:22.835Z,2.40
2022-08-12T21:25:52.673Z,2.50
2022-08-12T21:28:20.631Z,2.38
2022-08-12T21:31:10.940Z,2.65
2022-08-12T21:33:58.755Z,2.43
2022-08-12T21:36:34.596Z,2.40
2022-08-12T21:39:20.654Z,2.17
2022-08-12T21:41:57.206Z,2.50
2022-08-12T21:45:43.981Z,2.78
2022-08-12T21:47:21.211Z,2.47
2022-08-12T21:50:03.406Z,2.30
2022-08-12T21:52:40.793Z,2.97
2022-08-12T21:55:18.659Z,2.30
2022-08-12T21:57:50.637Z,2.28
2022-08-12T22:00:33.351Z,2.47
2022-08-12T22:04:01.394Z,2.25
2022-08-12T22:06:20.354Z,2.40
2022-08-12T22:09:04.206Z,2.20
2022-08-12T22:11:42.175Z,2.35
2022-08-12T22:14:21.313Z,2.20
2022-08-12T22:16:53.197Z,2.30
2022-08-12T22:19:21.508Z,2.47
2022-08-12T22:21:53.201Z,1.98
2022-08-12T22:24:26.845Z,2.25
2022-08-12T22:26:58.905Z,2.20
2022-08-12T22:29:44.317Z,2.10
2022-08-12T22:32:13.238Z,2.13
2022-08-12T22:34:44.112Z,2.33
2022-08-12T22:37:19.814Z,2.60
2022-08-12T22:39:49.323Z,2.53
2022-08-12T22:42:41.548Z,2.10
2022-08-12T22:45:27.082Z,2.47
2022-08-12T22:47:56.042Z,2.25
2022-08-12T22:50:27.843Z,1.98
2022-08-12T22:53:14.596Z,1.93
2022-08-12T22:56:00.624Z,2.10
2022-08-12T22:58:31.851Z,2.20
2022-08-12T23:01:02.539Z,2.13
2022-08-12T23:03:47.776Z,2.00
2022-08-12T23:06:19.914Z,2.23
2022-08-12T23:08:47.924Z,2.00
2022-08-12T23:11:18.118Z,2.17
2022-08-12T23:14:01.884Z,2.08
2022-08-12T23:16:33.919Z,2.38
2022-08-12T23:19:11.059Z,2.40
2022-08-12T23:22:05.037Z,1.88
2022-08-12T23:24:56.431Z,2.40
2022-08-12T23:27:51.850Z,2.30
2022-08-12T23:30:31.814Z,2.20
2022-08-12T23:33:19.880Z,2.17
2022-08-12T23:35:59.148Z,2.03
2022-08-12T23:38:32.576Z,2.40
2022-08-12T23:41:06.111Z,1.95
2022-08-12T23:43:40.130Z,2.30
2022-08-12T23:46:19.243Z,2.40
2022-08-12T23:48:47.746Z,2.50
2022-08-12T23:51:22.506Z,2.40
2022-08-12T23:53:56.351Z,2.47
2022-08-12T23:56:27.363Z,2.42
2022-08-12T23:58:58.728Z,2.10
